logo
Search for airport 
image banner adimage banner adimage banner ad
image banner ad

LOAI - Wr. Neustadt Kh

Located in District Wiener Neustadt(Stadt), Austria

ICAO - , IATA -

Data provided by Airmate  

General information

Coordinates: N47°48'57" E16°14'50"
Elevation is 920 feet MSL.
 
View others Airports in Lower Austria

Operational data

Special qualification required
Current time UTC:
Current local time:
Weather at : LOAN - Wr. Neustadt/Ost ( 3 km )
METAR: LOAN 171800Z 30006KT 9999 FEW050
TAF: TAF LOAN 171115Z 1712/1721 31012KT 9999 FEW030 SCT040 TEMPO 1712/1717 30015G25KT SHRA TEMPO 1712/1716 FEW030CB SCT040
View NOTAMs / SUP AIP / TFR affecting this airport [VIEW]
Communications frequencies: [VIEW]

Runways:

Airport contact information

Address: District Wiener Neustadt(Stadt) Austria

Satellite view of LOAI